Time,TemperatureF,DewpointF,PressureIn,WindDirection,WindDirectionDegrees,WindSpeedMPH,WindSpeedGustMPH,Humidity,HourlyPrecipIn,Conditions,Clouds,dailyrainin,SolarRadiationWatts/m^2,SoftwareType,DateUTC
2013-03-05 00:00:00,32.4,25.0,29.72,NNE,20,8.8,12.7,74,0.00,CLR,,0.01,0.0,WeatherDisplay:10.37,2013-03-05 05:00:00,
2013-03-05 00:05:00,32.2,24.8,29.72,NNE,20,10.5,19.6,74,0.00,RA,,0.00,0.0,WeatherDisplay:10.37,2013-03-05 05:05:00,
2013-03-05 00:10:00,32.0,25.0,29.72,NNE,20,10.3,13.8,75,0.00,CLR,,0.00,0.0,WeatherDisplay:10.37,2013-03-05 05:10:00,
2013-03-05 00:15:00,31.8,24.8,29.72,NNE,20,2.6,5.0,75,0.00,CLR,,0.00,0.0,WeatherDisplay:10.37,2013-03-05 05:15:00,
2013-03-05 00:20:00,31.7,24.7,29.72,NNE,20,5.9,11.5,75,0.00,CLR,,0.00,0.0,WeatherDisplay:10.37,2013-03-05 05:20:00,
2013-03-05 00:25:00,31.7,24.7,29.72,NNE,20,7.6,15.0,75,0.00,CLR,,0.00,0.0,WeatherDisplay:10.37,2013-03-05 05:25:00,
2013-03-05 00:30:00,31.6,24.9,29.72,NNE,20,5.7,10.4,76,0.00,CLR,,0.00,0.0,WeatherDisplay:10.37,2013-03-05 05:30:00,
2013-03-05 00:35:00,31.5,24.5,29.72,NNE,20,5.3,8.1,75,0.00,CLR,,0.00,0.0,WeatherDisplay:10.37,2013-03-05 05:35:00,
2013-03-05 00:40:00,31.5,24.5,29.72,NNE,20,1.6,5.8,75,0.00,CLR,,0.00,0.0,WeatherDisplay:10.37,2013-03-05 05:40:00,
2013-03-05 00:45:00,31.3,24.6,29.73,NNE,20,3.0,6.9,76,0.00,CLR,,0.00,0.0,WeatherDisplay:10.37,2013-03-05 05:45:00,
2013-03-05 00:50:00,31.3,24.6,29.73,NNE,20,10.8,19.6,76,0.00,CLR,,0.00,0.0,WeatherDisplay:10.37,2013-03-05 05:50:00,
2013-03-05 00:55:00,31.3,24.6,29.73,NNE,20,3.3,5.8,76,0.00,CLR,,0.00,0.0,WeatherDisplay:10.37,2013-03-05 05:55:00,
2013-03-05 01:00:00,31.4,24.7,29.74,NNE,20,8.9,15.0,76,0.00,CLR,,0.00,0.0,WeatherDisplay:10.37,2013-03-05 06:00:00,
2013-03-05 01:05:00,31.4,24.7,29.74,NNE,20,4.5,9.0,76,0.00,CLR,,0.00,0.0,WeatherDisplay:10.37,2013-03-05 06:05:00,
2013-03-05 01:10:00,31.3,24.6,29.74,NNE,20,7.9,10.4,76,0.00,CLR,,0.00,0.0,WeatherDisplay:10.37,2013-03-05 06:10:00,
2013-03-05 01:15:00,31.2,24.5,29.74,NNE,20,5.6,9.2,76,0.00,CLR,,0.00,0.0,WeatherDisplay:10.37,2013-03-05 06:15:00,
2013-03-05 01:20:00,31.3,24.6,29.74,NNE,20,10.8,18.4,76,0.00,CLR,,0.00,0.0,WeatherDisplay:10.37,2013-03-05 06:20:00,
2013-03-05 01:25:00,31.2,24.5,29.74,NNE,20,2.5,8.1,76,0.00,CLR,,0.00,0.0,WeatherDisplay:10.37,2013-03-05 06:25:00,
2013-03-05 01:30:00,31.1,24.4,29.75,NNE,20,5.6,9.2,76,0.00,CLR,,0.00,0.0,WeatherDisplay:10.37,2013-03-05 06:30:00,
2013-03-05 01:35:00,31.0,24.3,29.75,NNE,20,3.3,5.8,76,0.00,CLR,,0.00,0.0,WeatherDisplay:10.37,2013-03-05 06:35:00,
2013-03-05 01:40:00,30.8,24.1,29.75,NNE,20,1.3,4.0,76,0.00,CLR,,0.00,0.0,WeatherDisplay:10.37,2013-03-05 06:40:00,
2013-03-05 01:45:00,30.7,24.0,29.75,NNE,20,4.2,10.4,76,0.00,CLR,,0.00,0.0,WeatherDisplay:10.37,2013-03-05 06:45:00,
2013-03-05 01:50:00,30.6,24.2,29.75,NNE,20,0.6,4.6,77,0.00,CLR,,0.00,0.0,WeatherDisplay:10.37,2013-03-05 06:50:00,
2013-03-05 01:55:00,30.6,24.2,29.75,NNE,20,1.1,5.0,77,0.00,CLR,,0.00,0.0,WeatherDisplay:10.37,2013-03-05 06:55:00,
2013-03-05 02:00:00,30.5,24.1,29.75,NNE,20,1.3,5.0,77,0.00,CLR,,0.00,0.0,WeatherDisplay:10.37,2013-03-05 07:00:00,
2013-03-05 02:05:00,30.5,24.1,29.75,NNE,20,4.5,9.2,77,0.00,CLR,,0.00,0.0,WeatherDisplay:10.37,2013-03-05 07:05:00,
2013-03-05 02:10:00,30.5,24.1,29.75,NNE,20,2.2,6.0,77,0.00,CLR,,0.00,0.0,WeatherDisplay:10.37,2013-03-05 07:10:00,
2013-03-05 02:15:00,30.5,24.1,29.76,NNE,20,2.5,9.2,77,0.00,CLR,,0.00,0.0,WeatherDisplay:10.37,2013-03-05 07:15:00,
2013-03-05 02:20:00,30.5,24.1,29.76,NNE,20,1.7,6.9,77,0.00,CLR,,0.00,0.0,WeatherDisplay:10.37,2013-03-05 07:20:00,
2013-03-05 02:25:00,30.5,24.1,29.76,NNE,20,2.3,6.0,77,0.00,CLR,,0.00,0.0,WeatherDisplay:10.37,2013-03-05 07:25:00,
2013-03-05 02:30:00,30.6,24.2,29.76,NNE,20,10.0,15.0,77,0.00,CLR,,0.00,0.0,WeatherDisplay:10.37,2013-03-05 07:30:00,
2013-03-05 02:35:00,30.7,24.3,29.76,NNE,20,4.7,10.4,77,0.00,CLR,,0.00,0.0,WeatherDisplay:10.37,2013-03-05 07:35:00,
2013-03-05 02:40:00,30.6,24.2,29.76,NNE,20,3.2,10.4,77,0.00,CLR,,0.00,0.0,WeatherDisplay:10.37,2013-03-05 07:40:00,
2013-03-05 02:45:00,30.6,24.2,29.76,NNE,20,3.3,4.6,77,0.00,CLR,,0.00,0.0,WeatherDisplay:10.37,2013-03-05 07:45:00,
2013-03-05 02:50:00,30.4,24.1,29.76,NNE,20,1.5,4.0,77,0.00,CLR,,0.00,0.0,WeatherDisplay:10.37,2013-03-05 07:50:00,
2013-03-05 02:55:00,30.3,24.0,29.76,NNE,20,6.1,8.1,77,0.00,CLR,,0.00,0.0,WeatherDisplay:10.37,2013-03-05 07:55:00,
2013-03-05 03:00:00,30.3,24.0,29.76,NNE,20,4.1,10.4,77,0.00,CLR,,0.00,0.0,WeatherDisplay:10.37,2013-03-05 08:00:00,
2013-03-05 03:05:00,30.4,24.1,29.76,NNE,20,7.8,11.5,77,0.00,CLR,,0.00,0.0,WeatherDisplay:10.37,2013-03-05 08:05:00,
2013-03-05 03:10:00,30.5,24.1,29.76,NNE,20,2.6,6.9,77,0.00,CLR,,0.00,0.0,WeatherDisplay:10.37,2013-03-05 08:10:00,
2013-03-05 03:15:00,30.5,24.1,29.77,NNE,20,4.2,6.9,77,0.00,CLR,,0.00,0.0,WeatherDisplay:10.37,2013-03-05 08:15:00,
2013-03-05 03:20:00,30.5,24.1,29.77,NNE,20,4.5,10.4,77,0.00,CLR,,0.00,0.0,WeatherDisplay:10.37,2013-03-05 08:20:00,
2013-03-05 03:25:00,30.6,24.2,29.77,NNE,20,1.7,6.0,77,0.00,CLR,,0.00,0.0,WeatherDisplay:10.37,2013-03-05 08:25:00,
2013-03-05 03:30:00,30.6,24.2,29.77,NNE,20,4.4,8.1,77,0.00,CLR,,0.00,0.0,WeatherDisplay:10.37,2013-03-05 08:30:00,
2013-03-05 03:35:00,30.8,24.4,29.77,NNE,20,3.5,5.8,77,0.00,CLR,,0.00,0.0,WeatherDisplay:10.37,2013-03-05 08:35:00,
2013-03-05 03:40:00,30.8,24.4,29.77,NNE,20,3.5,9.2,77,0.00,CLR,,0.00,0.0,WeatherDisplay:10.37,2013-03-05 08:40:00,
2013-03-05 03:45:00,30.8,24.4,29.77,NNE,20,0.7,3.5,77,0.00,CLR,,0.00,0.0,WeatherDisplay:10.37,2013-03-05 08:45:00,
2013-03-05 03:50:00,30.9,24.8,29.77,NNE,20,2.0,11.5,78,0.00,CLR,,0.00,0.0,WeatherDisplay:10.37,2013-03-05 08:50:00,
2013-03-05 03:55:00,30.9,24.8,29.77,NNE,20,3.5,6.9,78,0.00,CLR,,0.00,0.0,WeatherDisplay:10.37,2013-03-05 08:55:00,
2013-03-05 04:00:00,30.9,24.8,29.78,NNE,20,1.8,5.8,78,0.00,CLR,,0.00,0.0,WeatherDisplay:10.37,2013-03-05 09:00:00,
2013-03-05 04:05:00,31.0,24.6,29.78,NNE,20,5.6,8.1,77,0.00,CLR,,0.00,0.0,WeatherDisplay:10.37,2013-03-05 09:05:00,
2013-03-05 04:10:00,30.9,24.5,29.78,NNE,20,5.8,9.2,77,0.00,CLR,,0.00,0.0,WeatherDisplay:10.37,2013-03-05 09:10:00,
2013-03-05 04:15:00,30.7,24.3,29.79,NNE,20,3.7,6.9,77,0.00,CLR,,0.00,0.0,WeatherDisplay:10.37,2013-03-05 09:15:00,
2013-03-05 04:20:00,30.6,24.2,29.79,NNE,20,3.3,5.8,77,0.00,CLR,,0.00,0.0,WeatherDisplay:10.37,2013-03-05 09:20:00,
2013-03-05 04:25:00,30.6,24.6,29.79,NNE,20,1.8,8.1,78,0.00,CLR,,0.00,0.0,WeatherDisplay:10.37,2013-03-05 09:25:00,
2013-03-05 04:30:00,30.6,24.6,29.80,NNE,20,3.1,6.9,78,0.00,CLR,,0.00,0.0,WeatherDisplay:10.37,2013-03-05 09:30:00,
2013-03-05 04:35:00,30.5,24.5,29.80,NNE,20,5.0,8.1,78,0.00,CLR,,0.00,0.0,WeatherDisplay:10.37,2013-03-05 09:35:00,
2013-03-05 04:40:00,30.5,24.5,29.80,NNE,20,1.6,4.6,78,0.00,CLR,,0.00,0.0,WeatherDisplay:10.37,2013-03-05 09:40:00,
2013-03-05 04:45:00,30.4,24.4,29.81,NNE,20,0.0,0.0,78,0.00,CLR,,0.00,0.0,WeatherDisplay:10.37,2013-03-05 09:45:00,
2013-03-05 04:50:00,30.3,24.3,29.81,NNE,20,0.1,1.2,78,0.00,CLR,,0.00,0.0,WeatherDisplay:10.37,2013-03-05 09:50:00,
2013-03-05 04:55:00,30.2,24.5,29.81,NNE,20,1.6,4.6,79,0.00,CLR,,0.00,0.0,WeatherDisplay:10.37,2013-03-05 09:55:00,
2013-03-05 05:00:00,30.3,24.6,29.82,NNE,20,0.0,2.3,79,0.00,CLR,,0.00,0.0,WeatherDisplay:10.37,2013-03-05 10:00:00,
2013-03-05 05:05:00,30.3,24.6,29.82,NNE,20,1.3,3.5,79,0.00,CLR,,0.00,0.0,WeatherDisplay:10.37,2013-03-05 10:05:00,
2013-03-05 05:10:00,30.5,24.8,29.82,NNE,20,1.9,4.6,79,0.00,CLR,,0.00,0.0,WeatherDisplay:10.37,2013-03-05 10:10:00,
2013-03-05 05:15:00,30.4,24.7,29.82,NNE,20,1.2,3.5,79,0.00,CLR,,0.00,0.0,WeatherDisplay:10.37,2013-03-05 10:15:00,
2013-03-05 05:20:00,30.4,24.7,29.82,NNE,20,1.6,5.0,79,0.00,CLR,,0.00,0.0,WeatherDisplay:10.37,2013-03-05 10:20:00,
2013-03-05 05:25:00,30.3,24.6,29.82,NNE,20,1.1,4.6,79,0.00,CLR,,0.00,0.0,WeatherDisplay:10.37,2013-03-05 10:25:00,
2013-03-05 05:30:00,30.3,24.6,29.83,NNE,20,0.0,1.2,79,0.00,CLR,,0.00,0.0,WeatherDisplay:10.37,2013-03-05 10:30:00,
2013-03-05 05:35:00,30.2,24.5,29.83,NNE,20,2.4,4.6,79,0.00,CLR,,0.00,0.0,WeatherDisplay:10.37,2013-03-05 10:35:00,
2013-03-05 05:40:00,30.3,24.6,29.83,NNE,20,0.5,3.5,79,0.00,CLR,,0.00,0.0,WeatherDisplay:10.37,2013-03-05 10:40:00,
2013-03-05 05:45:00,30.4,24.7,29.83,NNE,20,2.9,5.8,79,0.00,CLR,,0.00,0.0,WeatherDisplay:10.37,2013-03-05 10:45:00,
2013-03-05 05:50:00,30.4,24.7,29.83,NNE,20,2.9,6.9,79,0.00,CLR,,0.00,0.0,WeatherDisplay:10.37,2013-03-05 10:50:00,
2013-03-05 05:55:00,30.5,24.5,29.83,NNE,20,2.6,4.6,78,0.00,CLR,,0.00,0.0,WeatherDisplay:10.37,2013-03-05 10:55:00,
2013-03-05 06:00:00,30.6,24.6,29.84,NNE,20,5.5,8.1,78,0.00,CLR,,0.00,0.0,WeatherDisplay:10.37,2013-03-05 11:00:00,
2013-03-05 06:05:00,30.8,24.7,29.84,NNE,20,4.5,11.5,78,0.00,OVC,,0.00,0.0,WeatherDisplay:10.37,2013-03-05 11:05:00,
2013-03-05 06:10:00,31.0,24.9,29.84,NNE,20,4.9,6.9,78,0.00,OVC,,0.00,0.0,WeatherDisplay:10.37,2013-03-05 11:10:00,
2013-03-05 06:15:00,31.0,24.9,29.84,NNE,20,6.3,11.5,78,0.00,OVC,,0.00,0.0,WeatherDisplay:10.37,2013-03-05 11:15:00,
2013-03-05 06:20:00,31.1,25.0,29.84,NNE,20,9.1,12.7,78,0.00,OVC,,0.00,5.0,WeatherDisplay:10.37,2013-03-05 11:20:00,
2013-03-05 06:25:00,31.2,24.8,29.84,NNE,20,6.0,10.4,77,0.00,OVC,,0.00,7.0,WeatherDisplay:10.37,2013-03-05 11:25:00,
2013-03-05 06:30:00,31.2,24.8,29.85,NNE,20,1.3,3.5,77,0.00,SCT,,0.00,9.0,WeatherDisplay:10.37,2013-03-05 11:30:00,
2013-03-05 06:35:00,31.3,24.9,29.85,NNE,20,4.7,11.5,77,0.00,BKN,,0.00,11.0,WeatherDisplay:10.37,2013-03-05 11:35:00,
2013-03-05 06:40:00,31.4,25.0,29.85,NNE,20,4.2,10.4,77,0.00,OVC,,0.00,12.0,WeatherDisplay:10.37,2013-03-05 11:40:00,
2013-03-05 06:45:00,31.5,25.1,29.85,NNE,20,4.2,6.9,77,0.00,OVC,,0.00,14.0,WeatherDisplay:10.37,2013-03-05 11:45:00,
2013-03-05 06:50:00,31.5,25.1,29.85,NNE,20,5.2,10.4,77,0.00,OVC,,0.00,18.0,WeatherDisplay:10.37,2013-03-05 11:50:00,
2013-03-05 06:55:00,31.6,25.2,29.85,NNE,20,8.3,12.7,77,0.00,OVC,,0.00,21.0,WeatherDisplay:10.37,2013-03-05 11:55:00,
2013-03-05 07:00:00,31.7,25.3,29.86,NNE,20,3.3,10.4,77,0.00,OVC,,0.00,25.0,WeatherDisplay:10.37,2013-03-05 12:00:00,
2013-03-05 07:05:00,31.8,25.4,29.86,NNE,20,5.0,8.1,77,0.00,OVC,,0.00,30.0,WeatherDisplay:10.37,2013-03-05 12:05:00,
2013-03-05 07:10:00,31.9,25.2,29.86,NNE,20,3.3,6.9,76,0.00,OVC,,0.00,32.0,WeatherDisplay:10.37,2013-03-05 12:10:00,
2013-03-05 07:15:00,32.0,25.3,29.87,NNE,20,4.9,8.1,76,0.00,OVC,,0.00,35.0,WeatherDisplay:10.37,2013-03-05 12:15:00,
2013-03-05 07:20:00,32.0,25.3,29.87,NNE,20,4.6,8.1,76,0.00,OVC,,0.00,40.0,WeatherDisplay:10.37,2013-03-05 12:20:00,
2013-03-05 07:25:00,32.1,25.4,29.87,NNE,20,6.1,11.5,76,0.00,OVC,,0.00,47.0,WeatherDisplay:10.37,2013-03-05 12:25:00,
2013-03-05 07:30:00,32.3,25.6,29.88,NNE,20,0.0,0.0,76,0.00,OVC,,0.00,53.0,WeatherDisplay:10.37,2013-03-05 12:30:00,
2013-03-05 07:35:00,32.5,25.8,29.88,NNE,20,5.0,8.1,76,0.00,OVC,,0.00,67.0,WeatherDisplay:10.37,2013-03-05 12:35:00,
2013-03-05 07:40:00,32.6,25.9,29.88,NNE,20,5.9,9.2,76,0.00,BKN,,0.00,88.0,WeatherDisplay:10.37,2013-03-05 12:40:00,
2013-03-05 07:45:00,32.9,26.2,29.88,NNE,20,1.4,3.5,76,0.00,BKN,,0.00,105.0,WeatherDisplay:10.37,2013-03-05 12:45:00,
2013-03-05 07:50:00,33.1,26.0,29.88,NNE,20,2.8,5.8,75,0.00,SCT,,0.00,123.0,WeatherDisplay:10.37,2013-03-05 12:50:00,
2013-03-05 07:55:00,33.3,26.2,29.88,NNE,20,3.7,5.8,75,0.00,SCT,,0.00,139.0,WeatherDisplay:10.37,2013-03-05 12:55:00,
2013-03-05 08:00:00,33.5,26.4,29.88,NNE,20,4.1,9.2,75,0.00,SCT,,0.00,174.0,WeatherDisplay:10.37,2013-03-05 13:00:00,
2013-03-05 08:05:00,33.6,26.2,29.88,NNE,20,2.6,3.5,74,0.00,BKN,,0.00,134.0,WeatherDisplay:10.37,2013-03-05 13:05:00,
2013-03-05 08:10:00,33.9,26.5,29.88,NNE,20,4.6,8.1,74,0.00,BKN,,0.00,135.0,WeatherDisplay:10.37,2013-03-05 13:10:00,
2013-03-05 08:15:00,34.1,26.7,29.89,NNE,20,6.9,10.4,74,0.00,SCT,,0.00,181.0,WeatherDisplay:10.37,2013-03-05 13:15:00,
2013-03-05 08:20:00,34.4,26.6,29.89,NNE,20,7.5,12.7,73,0.00,SCT,,0.00,176.0,WeatherDisplay:10.37,2013-03-05 13:20:00,
2013-03-05 08:25:00,34.5,26.4,29.89,NNE,20,3.9,9.2,72,0.00,CLR,,0.00,281.0,WeatherDisplay:10.37,2013-03-05 13:25:00,
2013-03-05 08:30:00,35.0,26.9,29.89,NNE,20,6.0,9.2,72,0.00,FEW,,0.00,283.0,WeatherDisplay:10.37,2013-03-05 13:30:00,
2013-03-05 08:35:00,35.3,27.2,29.89,NNE,20,3.5,8.1,72,0.00,CLR,,0.00,573.0,WeatherDisplay:10.37,2013-03-05 13:35:00,
2013-03-05 08:40:00,35.6,27.1,29.89,NNE,20,5.8,10.4,71,0.00,CLR,,0.00,408.0,WeatherDisplay:10.37,2013-03-05 13:40:00,
2013-03-05 08:45:00,36.1,27.3,29.89,NNE,20,7.3,11.5,70,0.00,SCT,,0.00,257.0,WeatherDisplay:10.37,2013-03-05 13:45:00,
2013-03-05 08:50:00,36.4,27.5,29.89,NNE,20,8.2,15.0,70,0.00,SCT,,0.00,234.0,WeatherDisplay:10.37,2013-03-05 13:50:00,
2013-03-05 08:55:00,36.4,27.5,29.89,NNE,20,6.3,9.2,70,0.00,SCT,,0.00,216.0,WeatherDisplay:10.37,2013-03-05 13:55:00,
2013-03-05 09:00:00,36.7,27.8,29.90,NNE,20,4.7,6.0,70,0.00,SCT,,0.00,258.0,WeatherDisplay:10.37,2013-03-05 14:00:00,
2013-03-05 09:05:00,37.0,27.8,29.90,NNE,20,7.4,10.4,69,0.00,SCT,,0.00,278.0,WeatherDisplay:10.37,2013-03-05 14:05:00,
2013-03-05 09:10:00,37.1,27.9,29.90,NNE,20,4.4,9.2,69,0.00,SCT,,0.00,285.0,WeatherDisplay:10.37,2013-03-05 14:10:00,
2013-03-05 09:15:00,37.4,28.2,29.90,NNE,20,4.7,8.1,69,0.00,SCT,,0.00,283.0,WeatherDisplay:10.37,2013-03-05 14:15:00,
2013-03-05 09:20:00,37.7,28.4,29.90,NNE,20,2.5,4.6,69,0.00,SCT,,0.00,276.0,WeatherDisplay:10.37,2013-03-05 14:20:00,
2013-03-05 09:25:00,38.2,28.6,29.90,NNE,20,6.5,10.0,68,0.00,SCT,,0.00,285.0,WeatherDisplay:10.37,2013-03-05 14:25:00,
2013-03-05 09:30:00,37.9,28.3,29.90,NNE,20,4.1,6.9,68,0.00,BKN,,0.00,264.0,WeatherDisplay:10.37,2013-03-05 14:30:00,
2013-03-05 09:35:00,38.0,28.4,29.90,NNE,20,5.9,11.5,68,0.00,SCT,,0.00,285.0,WeatherDisplay:10.37,2013-03-05 14:35:00,
2013-03-05 09:40:00,37.9,28.3,29.90,NNE,20,6.6,9.2,68,0.00,BKN,,0.00,279.0,WeatherDisplay:10.37,2013-03-05 14:40:00,
2013-03-05 09:45:00,38.0,28.4,29.91,NNE,20,7.4,11.5,68,0.00,SCT,,0.00,388.0,WeatherDisplay:10.37,2013-03-05 14:45:00,
2013-03-05 09:50:00,38.6,28.9,29.91,NNE,20,6.2,11.5,68,0.00,SCT,,0.00,387.0,WeatherDisplay:10.37,2013-03-05 14:50:00,
2013-03-05 09:55:00,38.5,28.9,29.91,NNE,20,5.5,9.2,68,0.00,SCT,,0.00,348.0,WeatherDisplay:10.37,2013-03-05 14:55:00,
2013-03-05 10:00:00,38.6,28.6,29.91,NNE,20,4.4,11.5,67,0.00,SCT,,0.00,355.0,WeatherDisplay:10.37,2013-03-05 15:00:00,
2013-03-05 10:05:00,38.8,28.8,29.91,NNE,20,8.0,11.5,67,0.00,SCT,,0.00,352.0,WeatherDisplay:10.37,2013-03-05 15:05:00,
2013-03-05 10:10:00,39.4,29.7,29.91,NNE,20,4.4,8.0,68,0.00,SCT,,0.00,399.0,WeatherDisplay:10.37,2013-03-05 15:10:00,
2013-03-05 10:15:00,39.5,29.8,29.91,NNE,20,5.0,7.0,68,0.00,SCT,,0.00,383.0,WeatherDisplay:10.37,2013-03-05 15:15:00,
2013-03-05 10:20:00,39.6,29.5,29.91,NNE,20,8.0,11.5,67,0.00,FEW,,0.00,471.0,WeatherDisplay:10.37,2013-03-05 15:20:00,
2013-03-05 10:25:00,39.4,29.3,29.91,NNE,20,5.9,10.4,67,0.00,SCT,,0.00,338.0,WeatherDisplay:10.37,2013-03-05 15:25:00,
2013-03-05 10:30:00,40.0,29.9,29.91,NNE,20,6.2,8.1,67,0.00,SCT,,0.00,350.0,WeatherDisplay:10.37,2013-03-05 15:30:00,
2013-03-05 10:35:00,39.4,29.3,29.91,NNE,20,7.1,9.2,67,0.00,SCT,,0.00,338.0,WeatherDisplay:10.37,2013-03-05 15:35:00,
2013-03-05 10:40:00,39.7,30.0,29.91,NNE,20,5.1,8.1,68,0.00,SCT,,0.00,373.0,WeatherDisplay:10.37,2013-03-05 15:40:00,
2013-03-05 10:45:00,40.5,30.8,29.91,NNE,20,7.0,18.4,68,0.00,SCT,,0.00,380.0,WeatherDisplay:10.37,2013-03-05 15:45:00,
2013-03-05 10:50:00,40.6,30.5,29.91,NNE,15,3.7,5.8,67,0.00,BKN,,0.00,311.0,WeatherDisplay:10.37,2013-03-05 15:50:00,
2013-03-05 10:55:00,39.9,30.2,29.91,NNE,15,5.9,10.4,68,0.00,BKN,,0.00,299.0,WeatherDisplay:10.37,2013-03-05 15:55:00,
2013-03-05 11:00:00,39.8,30.1,29.91,NNE,20,1.8,5.8,68,0.00,BKN,,0.00,262.0,WeatherDisplay:10.37,2013-03-05 16:00:00,
2013-03-05 11:05:00,39.8,29.7,29.91,NNE,20,7.4,10.4,67,0.00,BKN,,0.00,287.0,WeatherDisplay:10.37,2013-03-05 16:05:00,
2013-03-05 11:10:00,40.2,30.5,29.91,NNE,20,5.0,9.2,68,0.00,BKN,,0.00,258.0,WeatherDisplay:10.37,2013-03-05 16:10:00,
2013-03-05 11:15:00,40.1,30.0,29.91,NNE,20,4.8,9.2,67,0.00,BKN,,0.00,306.0,WeatherDisplay:10.37,2013-03-05 16:15:00,
2013-03-05 11:20:00,40.7,30.6,29.91,NNE,20,7.7,10.4,67,0.00,SCT,,0.00,369.0,WeatherDisplay:10.37,2013-03-05 16:20:00,
2013-03-05 11:25:00,40.9,30.8,29.91,NNE,20,6.4,8.1,67,0.00,SCT,,0.00,439.0,WeatherDisplay:10.37,2013-03-05 16:25:00,
2013-03-05 11:30:00,40.9,30.4,29.91,NNE,15,9.2,12.0,66,0.00,SCT,,0.00,448.0,WeatherDisplay:10.37,2013-03-05 16:30:00,
2013-03-05 11:35:00,41.0,30.9,29.91,NNE,20,3.3,5.8,67,0.00,CLR,,0.00,670.0,WeatherDisplay:10.37,2013-03-05 16:35:00,
2013-03-05 11:40:00,41.2,30.7,29.91,NNE,20,6.6,10.4,66,0.00,CLR,,0.00,670.0,WeatherDisplay:10.37,2013-03-05 16:40:00,
2013-03-05 11:45:00,42.3,31.4,29.91,NNE,20,6.6,10.4,65,0.00,FEW,,0.00,494.0,WeatherDisplay:10.37,2013-03-05 16:45:00,
2013-03-05 11:50:00,43.5,32.1,29.91,NNE,20,7.1,9.2,64,0.00,CLR,,0.00,889.0,WeatherDisplay:10.37,2013-03-05 16:50:00,
2013-03-05 11:55:00,42.6,31.3,29.91,NNE,20,4.7,10.0,64,0.00,FEW,,0.00,536.0,WeatherDisplay:10.37,2013-03-05 16:55:00,
2013-03-05 12:00:00,41.9,31.0,29.91,NNE,20,3.1,9.0,65,0.00,FEW,,0.00,555.0,WeatherDisplay:10.37,2013-03-05 17:00:00,
2013-03-05 12:05:00,42.1,31.2,29.91,NNE,20,6.8,11.5,65,0.00,SCT,,0.00,380.0,WeatherDisplay:10.37,2013-03-05 17:05:00,
2013-03-05 12:10:00,41.4,30.5,29.91,NNE,20,8.2,11.0,65,0.00,SCT,,0.00,418.0,WeatherDisplay:10.37,2013-03-05 17:10:00,
2013-03-05 12:15:00,41.5,30.6,29.92,NNE,20,5.2,8.1,65,0.00,SCT,,0.00,355.0,WeatherDisplay:10.37,2013-03-05 17:15:00,
2013-03-05 12:20:00,41.8,31.3,29.92,NNE,20,4.8,9.2,66,0.00,SCT,,0.00,394.0,WeatherDisplay:10.37,2013-03-05 17:20:00,
2013-03-05 12:25:00,42.8,31.5,29.92,NNE,20,3.5,5.8,64,0.00,SCT,,0.00,378.0,WeatherDisplay:10.37,2013-03-05 17:25:00,
2013-03-05 12:30:00,43.2,31.4,29.91,NNE,20,5.9,9.2,63,0.00,SCT,,0.00,464.0,WeatherDisplay:10.37,2013-03-05 17:30:00,
2013-03-05 12:35:00,43.5,32.1,29.91,NNE,20,1.5,4.0,64,0.00,SCT,,0.00,469.0,WeatherDisplay:10.37,2013-03-05 17:35:00,
2013-03-05 12:40:00,43.4,32.0,29.91,NNE,20,2.3,6.9,64,0.00,SCT,,0.00,432.0,WeatherDisplay:10.37,2013-03-05 17:40:00,
2013-03-05 12:45:00,43.8,32.0,29.91,NNE,20,0.9,5.8,63,0.00,SCT,,0.00,446.0,WeatherDisplay:10.37,2013-03-05 17:45:00,
2013-03-05 12:50:00,43.8,32.4,29.91,NNE,20,3.9,9.0,64,0.00,SCT,,0.00,408.0,WeatherDisplay:10.37,2013-03-05 17:50:00,
2013-03-05 12:55:00,44.3,32.1,29.91,NNE,20,3.2,9.2,62,0.00,SCT,,0.00,415.0,WeatherDisplay:10.37,2013-03-05 17:55:00,
2013-03-05 13:00:00,44.7,32.5,29.91,NNE,20,4.5,11.5,62,0.00,CLR,,0.00,791.0,WeatherDisplay:10.37,2013-03-05 18:00:00,
2013-03-05 13:05:00,43.8,31.2,29.91,NNE,20,7.7,12.7,61,0.00,CLR,,0.00,789.0,WeatherDisplay:10.37,2013-03-05 18:05:00,
2013-03-05 13:10:00,45.7,33.0,29.91,NNE,20,4.3,8.1,61,0.00,CLR,,0.00,777.0,WeatherDisplay:10.37,2013-03-05 18:10:00,
2013-03-05 13:15:00,44.8,32.2,29.91,NNE,20,3.3,8.1,61,0.00,CLR,,0.00,635.0,WeatherDisplay:10.37,2013-03-05 18:15:00,
2013-03-05 13:20:00,45.7,33.0,29.91,NNE,20,6.3,10.4,61,0.00,CLR,,0.00,722.0,WeatherDisplay:10.37,2013-03-05 18:20:00,
2013-03-05 13:25:00,44.3,32.1,29.91,NNE,20,3.6,8.1,62,0.00,CLR,,0.00,705.0,WeatherDisplay:10.37,2013-03-05 18:25:00,
2013-03-05 13:30:00,44.8,32.2,29.91,NNE,20,7.5,12.7,61,0.00,CLR,,0.00,696.0,WeatherDisplay:10.37,2013-03-05 18:30:00,
2013-03-05 13:35:00,45.6,33.3,29.91,NNE,20,3.0,5.8,62,0.00,CLR,,0.00,731.0,WeatherDisplay:10.37,2013-03-05 18:35:00,
2013-03-05 13:40:00,46.7,33.1,29.91,NNE,20,4.7,8.1,59,0.00,CLR,,0.00,807.0,WeatherDisplay:10.37,2013-03-05 18:40:00,
2013-03-05 13:45:00,45.9,32.8,29.92,NNE,20,4.3,8.1,60,0.00,CLR,,0.00,633.0,WeatherDisplay:10.37,2013-03-05 18:45:00,
2013-03-05 13:50:00,45.1,32.4,29.92,NNE,20,5.4,8.1,61,0.00,BKN,,0.00,241.0,WeatherDisplay:10.37,2013-03-05 18:50:00,
2013-03-05 13:55:00,44.3,32.1,29.92,NNE,20,1.4,6.9,62,0.00,BKN,,0.00,459.0,WeatherDisplay:10.37,2013-03-05 18:55:00,
2013-03-05 14:00:00,45.4,32.3,29.92,NNE,20,2.0,5.8,60,0.00,BKN,,0.00,239.0,WeatherDisplay:10.37,2013-03-05 19:00:00,
2013-03-05 14:05:00,45.5,32.4,29.92,NNE,20,4.6,9.2,60,0.00,BKN,,0.00,244.0,WeatherDisplay:10.37,2013-03-05 19:05:00,
2013-03-05 14:10:00,44.5,31.9,29.92,NNE,20,3.0,5.0,61,0.00,OVC,,0.00,171.0,WeatherDisplay:10.37,2013-03-05 19:10:00,
2013-03-05 14:15:00,43.9,31.7,29.92,NNE,20,4.3,9.0,62,0.00,BKN,,0.00,225.0,WeatherDisplay:10.37,2013-03-05 19:15:00,
2013-03-05 14:20:00,44.3,32.5,29.92,NNE,20,2.5,4.0,63,0.00,OVC,,0.00,171.0,WeatherDisplay:10.37,2013-03-05 19:20:00,
2013-03-05 14:25:00,44.3,32.1,29.92,NNE,20,6.4,11.5,62,0.00,BKN,,0.00,218.0,WeatherDisplay:10.37,2013-03-05 19:25:00,
2013-03-05 14:30:00,43.9,31.7,29.93,NNE,20,3.7,11.5,62,0.00,BKN,,0.00,239.0,WeatherDisplay:10.37,2013-03-05 19:30:00,
2013-03-05 14:35:00,44.5,31.9,29.93,NNE,20,5.3,10.4,61,0.00,SCT,,0.00,265.0,WeatherDisplay:10.37,2013-03-05 19:35:00,
2013-03-05 14:40:00,45.1,32.4,29.93,NNE,20,3.8,7.0,61,0.00,SCT,,0.00,244.0,WeatherDisplay:10.37,2013-03-05 19:40:00,
2013-03-05 14:45:00,44.4,31.8,29.93,NNE,20,5.1,6.9,61,0.00,OVC,,0.00,151.0,WeatherDisplay:10.37,2013-03-05 19:45:00,
2013-03-05 14:50:00,44.0,31.8,29.93,NNE,20,4.3,6.9,62,0.00,OVC,,0.00,151.0,WeatherDisplay:10.37,2013-03-05 19:50:00,
2013-03-05 14:55:00,43.7,31.5,29.93,NNE,20,1.9,3.5,62,0.00,OVC,,0.00,139.0,WeatherDisplay:10.37,2013-03-05 19:55:00,
2013-03-05 15:00:00,43.6,30.6,29.94,NNE,20,5.3,6.9,60,0.00,OVC,,0.00,127.0,WeatherDisplay:10.37,2013-03-05 20:00:00,
2013-03-05 15:05:00,43.2,31.1,29.94,NNE,20,1.8,3.5,62,0.00,OVC,,0.00,155.0,WeatherDisplay:10.37,2013-03-05 20:05:00,
2013-03-05 15:10:00,43.8,31.6,29.94,NNE,20,0.6,3.5,62,0.00,SCT,,0.00,206.0,WeatherDisplay:10.37,2013-03-05 20:10:00,
2013-03-05 15:15:00,45.1,32.4,29.94,NNE,20,0.4,4.0,61,0.00,SCT,,0.00,239.0,WeatherDisplay:10.37,2013-03-05 20:15:00,
2013-03-05 15:20:00,45.4,31.5,29.94,NNE,20,6.3,7.0,58,0.00,BKN,,0.00,158.0,WeatherDisplay:10.37,2013-03-05 20:20:00,
2013-03-05 15:25:00,45.0,31.9,29.94,NNE,20,2.8,3.5,60,0.00,OVC,,0.00,86.0,WeatherDisplay:10.37,2013-03-05 20:25:00,
2013-03-05 15:30:00,44.5,31.5,29.95,NNE,20,4.0,5.8,60,0.00,OVC,,0.00,102.0,WeatherDisplay:10.37,2013-03-05 20:30:00,
2013-03-05 15:35:00,44.1,31.1,29.95,NNE,20,3.9,6.9,60,0.00,OVC,,0.00,100.0,WeatherDisplay:10.37,2013-03-05 20:35:00,
2013-03-05 15:40:00,44.2,31.2,29.95,NNE,20,4.5,5.8,60,0.00,OVC,,0.00,83.0,WeatherDisplay:10.37,2013-03-05 20:40:00,
2013-03-05 15:45:00,44.3,31.7,29.96,NNE,20,6.7,9.2,61,0.00,OVC,,0.00,69.0,WeatherDisplay:10.37,2013-03-05 20:45:00,
2013-03-05 15:50:00,44.1,31.5,29.96,NNE,20,4.2,6.9,61,0.00,OVC,,0.00,81.0,WeatherDisplay:10.37,2013-03-05 20:50:00,
2013-03-05 15:55:00,43.9,30.9,29.96,NNE,15,4.3,6.9,60,0.00,OVC,,0.00,90.0,WeatherDisplay:10.37,2013-03-05 20:55:00,
2013-03-05 16:00:00,43.8,31.2,29.96,NNE,20,1.1,4.0,61,0.00,OVC,,0.00,83.0,WeatherDisplay:10.37,2013-03-05 21:00:00,
2013-03-05 16:05:00,43.7,31.1,29.96,NNE,20,3.2,5.0,61,0.00,OVC,,0.00,65.0,WeatherDisplay:10.37,2013-03-05 21:05:00,
2013-03-05 16:10:00,43.5,30.9,29.96,NNE,20,3.8,5.8,61,0.00,OVC,,0.00,60.0,WeatherDisplay:10.37,2013-03-05 21:10:00,
2013-03-05 16:15:00,43.6,31.0,29.97,NNE,20,4.3,6.0,61,0.00,OVC,,0.00,53.0,WeatherDisplay:10.37,2013-03-05 21:15:00,
2013-03-05 16:20:00,43.5,31.3,29.97,NNE,20,2.3,3.5,62,0.00,OVC,,0.00,53.0,WeatherDisplay:10.37,2013-03-05 21:20:00,
2013-03-05 16:25:00,43.4,31.2,29.97,NNE,20,0.2,1.2,62,0.00,OVC,,0.00,42.0,WeatherDisplay:10.37,2013-03-05 21:25:00,
2013-03-05 16:30:00,43.4,31.2,29.97,NNE,20,2.4,4.6,62,0.00,OVC,,0.00,37.0,WeatherDisplay:10.37,2013-03-05 21:30:00,
2013-03-05 16:35:00,43.2,31.1,29.97,NNE,20,4.2,5.8,62,0.00,OVC,,0.00,32.0,WeatherDisplay:10.37,2013-03-05 21:35:00,
2013-03-05 16:40:00,43.1,31.4,29.97,NNE,20,3.2,4.6,63,0.00,OVC,,0.00,26.0,WeatherDisplay:10.37,2013-03-05 21:40:00,
2013-03-05 16:45:00,43.0,31.3,29.97,NNE,20,2.9,4.6,63,0.00,OVC,,0.00,26.0,WeatherDisplay:10.37,2013-03-05 21:45:00,
2013-03-05 16:50:00,43.1,31.7,29.97,NNE,20,0.0,0.0,64,0.00,OVC,,0.00,28.0,WeatherDisplay:10.37,2013-03-05 21:50:00,
2013-03-05 16:55:00,43.0,31.3,29.97,NNE,20,4.0,6.9,63,0.00,OVC,,0.00,28.0,WeatherDisplay:10.37,2013-03-05 21:55:00,
2013-03-05 17:00:00,42.9,31.2,29.97,NNE,20,0.1,2.3,63,0.00,OVC,,0.00,26.0,WeatherDisplay:10.37,2013-03-05 22:00:00,
2013-03-05 17:05:00,42.8,31.5,29.97,NNE,20,0.2,2.3,64,0.00,OVC,,0.00,19.0,WeatherDisplay:10.37,2013-03-05 22:05:00,
2013-03-05 17:10:00,42.6,31.3,29.97,NNE,15,0.5,3.5,64,0.00,OVC,,0.00,16.0,WeatherDisplay:10.37,2013-03-05 22:10:00,
2013-03-05 17:15:00,42.5,31.2,29.98,NNE,15,1.4,3.5,64,0.00,OVC,,0.00,11.0,WeatherDisplay:10.37,2013-03-05 22:15:00,
2013-03-05 17:20:00,42.3,31.4,29.98,NNE,20,0.2,0.0,65,0.00,OVC,,0.00,9.0,WeatherDisplay:10.37,2013-03-05 22:20:00,
2013-03-05 17:25:00,42.1,31.9,29.98,NNE,20,2.3,5.0,67,0.00,OVC,,0.00,7.0,WeatherDisplay:10.37,2013-03-05 22:25:00,
2013-03-05 17:30:00,41.8,32.4,29.98,NNE,20,1.5,3.5,69,0.00,OVC,,0.00,5.0,WeatherDisplay:10.37,2013-03-05 22:30:00,
2013-03-05 17:35:00,41.7,33.0,29.98,NNE,20,1.9,3.5,71,0.00,OVC,,0.00,0.0,WeatherDisplay:10.37,2013-03-05 22:35:00,
2013-03-05 17:40:00,41.5,32.8,29.98,NNE,20,1.2,3.5,71,0.00,OVC,,0.00,0.0,WeatherDisplay:10.37,2013-03-05 22:40:00,
2013-03-05 17:45:00,41.3,33.0,29.98,NNE,20,0.0,0.0,72,0.00,OVC,,0.00,0.0,WeatherDisplay:10.37,2013-03-05 22:45:00,
2013-03-05 17:50:00,41.1,33.1,29.98,NNE,20,0.0,0.0,73,0.00,OVC,,0.00,0.0,WeatherDisplay:10.37,2013-03-05 22:50:00,
2013-03-05 17:55:00,40.8,32.8,29.98,NNE,20,0.0,0.0,73,0.00,OVC,,0.00,0.0,WeatherDisplay:10.37,2013-03-05 22:55:00,
2013-03-05 18:00:00,40.8,33.5,29.98,NNE,20,0.0,0.0,75,0.00,CLR,,0.00,0.0,WeatherDisplay:10.37,2013-03-05 23:00:00,
2013-03-05 18:05:00,40.3,33.0,29.98,NNE,20,0.0,0.0,75,0.00,CLR,,0.00,0.0,WeatherDisplay:10.37,2013-03-05 23:05:00,
2013-03-05 18:10:00,39.9,32.9,29.98,NNE,20,0.0,0.0,76,0.00,CLR,,0.00,0.0,WeatherDisplay:10.37,2013-03-05 23:10:00,
2013-03-05 18:15:00,39.6,32.7,29.99,NNE,20,0.0,0.0,76,0.00,CLR,,0.00,0.0,WeatherDisplay:10.37,2013-03-05 23:15:00,
2013-03-05 18:20:00,39.3,32.7,29.99,NNE,20,0.0,0.0,77,0.00,CLR,,0.00,0.0,WeatherDisplay:10.37,2013-03-05 23:20:00,
2013-03-05 18:25:00,39.0,32.4,29.99,NNE,20,0.0,0.0,77,0.00,CLR,,0.00,0.0,WeatherDisplay:10.37,2013-03-05 23:25:00,
2013-03-05 18:30:00,38.7,32.4,29.99,NNE,20,0.0,0.0,78,0.00,CLR,,0.00,0.0,WeatherDisplay:10.37,2013-03-05 23:30:00,
2013-03-05 18:35:00,38.6,32.3,29.99,NNE,20,0.0,0.0,78,0.00,CLR,,0.00,0.0,WeatherDisplay:10.37,2013-03-05 23:35:00,
2013-03-05 18:40:00,38.4,32.5,29.99,NNE,20,0.0,0.0,79,0.00,CLR,,0.00,0.0,WeatherDisplay:10.37,2013-03-05 23:40:00,
2013-03-05 18:45:00,38.2,32.6,30.00,NNE,20,0.0,0.0,80,0.00,CLR,,0.00,0.0,WeatherDisplay:10.37,2013-03-05 23:45:00,
2013-03-05 18:50:00,38.0,32.4,30.00,NNE,20,0.0,0.0,80,0.00,CLR,,0.00,0.0,WeatherDisplay:10.37,2013-03-05 23:50:00,
2013-03-05 18:55:00,37.9,32.6,30.00,NNE,20,0.0,0.0,81,0.00,CLR,,0.00,0.0,WeatherDisplay:10.37,2013-03-05 23:55:00,
2013-03-05 19:00:00,37.9,32.6,30.00,NNE,20,0.0,0.0,81,0.00,CLR,,0.00,0.0,WeatherDisplay:10.37,2013-03-06 00:00:00,
2013-03-05 19:05:00,37.9,32.9,30.00,NNE,20,0.0,0.0,82,0.00,CLR,,0.00,0.0,WeatherDisplay:10.37,2013-03-06 00:05:00,
2013-03-05 19:10:00,38.1,33.1,30.00,NNE,20,0.0,0.0,82,0.00,CLR,,0.00,0.0,WeatherDisplay:10.37,2013-03-06 00:10:00,
2013-03-05 19:15:00,37.7,32.7,30.01,NNE,20,0.0,0.0,82,0.00,CLR,,0.00,0.0,WeatherDisplay:10.37,2013-03-06 00:15:00,
2013-03-05 19:20:00,37.8,33.1,30.01,NNE,20,0.0,0.0,83,0.00,CLR,,0.00,0.0,WeatherDisplay:10.37,2013-03-06 00:20:00,
2013-03-05 19:25:00,37.5,33.1,30.01,NNE,20,0.0,0.0,84,0.00,CLR,,0.00,0.0,WeatherDisplay:10.37,2013-03-06 00:25:00,
2013-03-05 19:30:00,37.4,33.0,30.01,NNE,20,0.0,0.0,84,0.00,CLR,,0.00,0.0,WeatherDisplay:10.37,2013-03-06 00:30:00,
2013-03-05 19:35:00,37.1,32.7,30.01,NNE,20,0.0,0.0,84,0.00,CLR,,0.00,0.0,WeatherDisplay:10.37,2013-03-06 00:35:00,
2013-03-05 19:40:00,37.0,32.9,30.01,NNE,20,0.0,0.0,85,0.00,CLR,,0.00,0.0,WeatherDisplay:10.37,2013-03-06 00:40:00,
2013-03-05 19:45:00,37.0,32.9,30.01,NNE,20,0.0,0.0,85,0.00,CLR,,0.00,0.0,WeatherDisplay:10.37,2013-03-06 00:45:00,
2013-03-05 19:50:00,36.9,32.8,30.01,NNE,20,0.0,0.0,85,0.00,CLR,,0.00,0.0,WeatherDisplay:10.37,2013-03-06 00:50:00,
2013-03-05 19:55:00,36.8,33.0,30.01,NNE,20,0.0,0.0,86,0.00,CLR,,0.00,0.0,WeatherDisplay:10.37,2013-03-06 00:55:00,
2013-03-05 20:00:00,36.4,32.6,30.01,NNE,20,0.0,0.0,86,0.00,CLR,,0.00,0.0,WeatherDisplay:10.37,2013-03-06 01:00:00,
2013-03-05 20:05:00,36.2,32.4,30.01,NNE,20,0.0,0.0,86,0.00,CLR,,0.00,0.0,WeatherDisplay:10.37,2013-03-06 01:05:00,
2013-03-05 20:10:00,36.2,32.4,30.01,NNE,20,0.0,0.0,86,0.00,CLR,,0.00,0.0,WeatherDisplay:10.37,2013-03-06 01:10:00,
2013-03-05 20:15:00,35.9,32.1,30.01,NNE,20,0.0,0.0,86,0.00,CLR,,0.00,0.0,WeatherDisplay:10.37,2013-03-06 01:15:00,
2013-03-05 20:20:00,35.6,31.8,30.01,NNE,20,0.0,0.0,86,0.00,CLR,,0.00,0.0,WeatherDisplay:10.37,2013-03-06 01:20:00,
2013-03-05 20:25:00,35.4,31.9,30.01,NNE,20,0.0,0.0,87,0.00,CLR,,0.00,0.0,WeatherDisplay:10.37,2013-03-06 01:25:00,
2013-03-05 20:30:00,35.2,31.4,30.01,NNE,20,0.0,0.0,86,0.00,CLR,,0.00,0.0,WeatherDisplay:10.37,2013-03-06 01:30:00,
2013-03-05 20:35:00,35.3,31.8,30.01,NNE,20,0.0,0.0,87,0.00,CLR,,0.00,0.0,WeatherDisplay:10.37,2013-03-06 01:35:00,
2013-03-05 20:40:00,35.2,31.7,30.01,NNE,20,0.0,0.0,87,0.00,CLR,,0.00,0.0,WeatherDisplay:10.37,2013-03-06 01:40:00,
2013-03-05 20:45:00,35.1,31.6,30.01,NNE,20,0.0,0.0,87,0.00,CLR,,0.00,0.0,WeatherDisplay:10.37,2013-03-06 01:45:00,
2013-03-05 20:50:00,35.0,31.5,30.01,NNE,20,0.0,0.0,87,0.00,CLR,,0.00,0.0,WeatherDisplay:10.37,2013-03-06 01:50:00,
2013-03-05 20:55:00,34.8,31.3,30.01,NNE,20,0.0,0.0,87,0.00,CLR,,0.00,0.0,WeatherDisplay:10.37,2013-03-06 01:55:00,
2013-03-05 21:00:00,34.4,30.9,30.01,NNE,20,0.0,0.0,87,0.00,CLR,,0.00,0.0,WeatherDisplay:10.37,2013-03-06 02:00:00,
2013-03-05 21:05:00,34.4,30.9,30.01,NNE,20,0.0,0.0,87,0.00,CLR,,0.00,0.0,WeatherDisplay:10.37,2013-03-06 02:05:00,
2013-03-05 21:10:00,34.4,30.9,30.01,NNE,20,0.0,0.0,87,0.00,CLR,,0.00,0.0,WeatherDisplay:10.37,2013-03-06 02:10:00,
2013-03-05 21:15:00,34.4,30.9,30.01,NNE,20,0.0,0.0,87,0.00,CLR,,0.00,0.0,WeatherDisplay:10.37,2013-03-06 02:15:00,
2013-03-05 21:20:00,34.4,30.9,30.01,NNE,20,0.0,0.0,87,0.00,CLR,,0.00,0.0,WeatherDisplay:10.37,2013-03-06 02:20:00,
2013-03-05 21:25:00,34.4,30.9,30.01,NNE,20,0.0,0.0,87,0.00,CLR,,0.00,0.0,WeatherDisplay:10.37,2013-03-06 02:25:00,
2013-03-05 21:30:00,34.4,30.9,30.01,NNE,20,0.0,0.0,87,0.00,CLR,,0.00,0.0,WeatherDisplay:10.37,2013-03-06 02:30:00,
2013-03-05 21:35:00,34.3,30.8,30.01,NNE,20,0.0,0.0,87,0.00,CLR,,0.00,0.0,WeatherDisplay:10.37,2013-03-06 02:35:00,
2013-03-05 21:40:00,34.1,30.6,30.01,NNE,20,0.0,0.0,87,0.00,CLR,,0.00,0.0,WeatherDisplay:10.37,2013-03-06 02:40:00,
2013-03-05 21:45:00,34.4,30.9,30.01,NNE,20,0.0,0.0,87,0.00,CLR,,0.00,0.0,WeatherDisplay:10.37,2013-03-06 02:45:00,
2013-03-05 21:50:00,34.4,30.9,30.01,NNE,20,0.0,0.0,87,0.00,CLR,,0.00,0.0,WeatherDisplay:10.37,2013-03-06 02:50:00,
2013-03-05 21:55:00,34.7,31.2,30.01,NNE,20,0.0,0.0,87,0.00,CLR,,0.00,0.0,WeatherDisplay:10.37,2013-03-06 02:55:00,
2013-03-05 22:00:00,34.9,31.1,30.01,NNE,20,0.0,0.0,86,0.00,CLR,,0.00,0.0,WeatherDisplay:10.37,2013-03-06 03:00:00,
2013-03-05 22:05:00,35.2,31.4,30.01,NNE,20,0.0,0.0,86,0.00,CLR,,0.00,0.0,WeatherDisplay:10.37,2013-03-06 03:05:00,
2013-03-05 22:10:00,35.3,31.5,30.01,NNE,20,0.0,0.0,86,0.00,CLR,,0.00,0.0,WeatherDisplay:10.37,2013-03-06 03:10:00,
2013-03-05 22:15:00,35.5,32.0,30.02,NNE,20,1.2,2.3,87,0.00,CLR,,0.00,0.0,WeatherDisplay:10.37,2013-03-06 03:15:00,
2013-03-05 22:20:00,35.8,32.0,30.02,NNE,20,1.0,2.3,86,0.00,CLR,,0.00,0.0,WeatherDisplay:10.37,2013-03-06 03:20:00,
2013-03-05 22:25:00,36.0,32.2,30.02,NNE,20,0.0,0.0,86,0.00,CLR,,0.00,0.0,WeatherDisplay:10.37,2013-03-06 03:25:00,
2013-03-05 22:30:00,36.1,32.3,30.02,NNE,20,0.0,0.0,86,0.00,CLR,,0.00,0.0,WeatherDisplay:10.37,2013-03-06 03:30:00,
2013-03-05 22:35:00,36.3,32.8,30.02,NNE,20,0.1,3.5,87,0.00,CLR,,0.00,0.0,WeatherDisplay:10.37,2013-03-06 03:35:00,
2013-03-05 22:40:00,36.6,33.1,30.02,NNE,20,0.7,3.5,87,0.00,CLR,,0.00,0.0,WeatherDisplay:10.37,2013-03-06 03:40:00,
2013-03-05 22:45:00,37.0,33.5,30.03,NNE,20,0.0,0.0,87,0.00,CLR,,0.00,0.0,WeatherDisplay:10.37,2013-03-06 03:45:00,
2013-03-05 22:50:00,37.3,33.8,30.03,NNE,20,0.0,0.0,87,0.00,CLR,,0.00,0.0,WeatherDisplay:10.37,2013-03-06 03:50:00,
2013-03-05 22:55:00,37.3,33.8,30.03,NNE,20,0.0,0.0,87,0.00,CLR,,0.00,0.0,WeatherDisplay:10.37,2013-03-06 03:55:00,
2013-03-05 23:00:00,37.4,33.9,30.03,NNE,20,0.0,0.0,87,0.00,CLR,,0.00,0.0,WeatherDisplay:10.37,2013-03-06 04:00:00,
2013-03-05 23:05:00,37.4,33.9,30.03,NNE,20,0.0,0.0,87,0.00,CLR,,0.00,0.0,WeatherDisplay:10.37,2013-03-06 04:05:00,
2013-03-05 23:10:00,37.4,33.9,30.03,NNE,20,0.0,0.0,87,0.00,CLR,,0.00,0.0,WeatherDisplay:10.37,2013-03-06 04:10:00,
2013-03-05 23:15:00,37.3,33.8,30.02,NNE,20,0.0,0.0,87,0.00,CLR,,0.00,0.0,WeatherDisplay:10.37,2013-03-06 04:15:00,
2013-03-05 23:20:00,37.3,33.8,30.02,NNE,20,0.0,0.0,87,0.00,CLR,,0.00,0.0,WeatherDisplay:10.37,2013-03-06 04:20:00,
2013-03-05 23:25:00,37.2,33.7,30.02,NNE,20,0.0,2.3,87,0.00,CLR,,0.00,0.0,WeatherDisplay:10.37,2013-03-06 04:25:00,
2013-03-05 23:30:00,36.8,33.3,30.02,NNE,20,0.0,0.0,87,0.00,CLR,,0.00,0.0,WeatherDisplay:10.37,2013-03-06 04:30:00,
2013-03-05 23:35:00,36.1,32.6,30.02,NNE,20,0.0,0.0,87,0.00,CLR,,0.00,0.0,WeatherDisplay:10.37,2013-03-06 04:35:00,
2013-03-05 23:40:00,35.7,32.2,30.02,NNE,20,0.0,0.0,87,0.00,CLR,,0.00,0.0,WeatherDisplay:10.37,2013-03-06 04:40:00,
2013-03-05 23:45:00,35.7,32.2,30.00,NNE,20,0.9,1.0,87,0.00,CLR,,0.00,0.0,WeatherDisplay:10.37,2013-03-06 04:45:00,
2013-03-05 23:50:00,35.8,32.3,30.00,NNE,20,2.4,3.5,87,0.00,CLR,,0.00,0.0,WeatherDisplay:10.37,2013-03-06 04:50:00,
2013-03-05 23:55:00,36.0,32.5,30.00,NNE,20,2.2,3.5,87,0.00,CLR,,0.00,0.0,WeatherDisplay:10.37,2013-03-06 04:55:00,